createdAt,value
2023-01-31T00:00:15.691Z,7.68
2023-01-31T00:02:42.687Z,7.70
2023-01-31T00:05:09.917Z,7.72
2023-01-31T00:07:37.464Z,7.72
2023-01-31T00:10:04.899Z,7.74
2023-01-31T00:12:31.753Z,7.76
2023-01-31T00:14:58.788Z,7.80
2023-01-31T00:17:26.279Z,7.81
2023-01-31T00:19:53.324Z,7.82
2023-01-31T00:22:20.264Z,7.80
2023-01-31T00:24:47.443Z,7.80
2023-01-31T00:27:14.363Z,7.83
2023-01-31T00:29:41.194Z,7.85
2023-01-31T00:32:08.401Z,7.84
2023-01-31T00:34:35.874Z,7.81
2023-01-31T00:37:02.984Z,7.82
2023-01-31T00:39:30.073Z,7.84
2023-01-31T00:41:57.058Z,7.86
2023-01-31T00:44:24.101Z,7.88
2023-01-31T00:46:51.121Z,7.90
2023-01-31T00:49:17.991Z,7.87
2023-01-31T00:51:45.202Z,7.86
2023-01-31T00:54:11.897Z,7.89
2023-01-31T00:56:38.597Z,7.91
2023-01-31T00:59:08.669Z,7.92
2023-01-31T01:01:36.067Z,7.89
2023-01-31T01:04:02.991Z,7.87
2023-01-31T01:06:29.788Z,7.88
2023-01-31T01:08:57.956Z,7.88
2023-01-31T01:11:26.919Z,7.89
2023-01-31T01:13:53.791Z,7.88
2023-01-31T01:16:22.357Z,7.88
2023-01-31T01:18:50.449Z,7.89
2023-01-31T01:21:19.013Z,7.89
2023-01-31T01:23:48.335Z,7.89
2023-01-31T01:26:16.900Z,7.86
2023-01-31T01:28:43.993Z,7.85
2023-01-31T01:31:11.618Z,7.86
2023-01-31T01:33:38.465Z,7.89
2023-01-31T01:36:06.680Z,7.92
2023-01-31T01:38:35.456Z,7.96
2023-01-31T01:41:02.222Z,7.99
2023-01-31T01:43:32.206Z,8.00
2023-01-31T01:45:59.349Z,8.02
2023-01-31T01:48:27.818Z,8.04
2023-01-31T01:50:54.613Z,8.07
2023-01-31T01:53:23.262Z,8.04
2023-01-31T01:55:54.452Z,8.04
2023-01-31T01:58:24.054Z,8.04
2023-01-31T02:00:51.331Z,8.02
2023-01-31T02:03:18.743Z,8.02
2023-01-31T02:05:47.288Z,8.03
2023-01-31T02:08:16.109Z,8.03
2023-01-31T02:10:47.034Z,8.01
2023-01-31T02:13:14.883Z,7.96
2023-01-31T02:15:41.696Z,7.93
2023-01-31T02:18:09.213Z,7.92
2023-01-31T02:20:39.401Z,7.91
2023-01-31T02:23:06.980Z,7.94
2023-01-31T02:25:37.117Z,7.93
2023-01-31T02:28:07.235Z,7.97
2023-01-31T02:30:34.676Z,8.02
2023-01-31T02:33:04.880Z,8.03
2023-01-31T02:35:33.258Z,8.05
2023-01-31T02:38:03.860Z,8.08
2023-01-31T02:40:31.275Z,8.08
2023-01-31T02:43:01.577Z,8.11
2023-01-31T02:45:31.836Z,8.14
2023-01-31T02:47:59.197Z,8.17
2023-01-31T02:50:30.070Z,8.20
2023-01-31T02:52:59.840Z,8.20
2023-01-31T02:55:30.259Z,8.22
2023-01-31T02:57:58.513Z,8.24
2023-01-31T03:00:26.645Z,8.26
2023-01-31T03:02:53.773Z,8.27
2023-01-31T03:05:21.657Z,8.29
2023-01-31T03:07:52.036Z,8.33
2023-01-31T03:10:22.217Z,8.34
2023-01-31T03:12:57.631Z,8.34
2023-01-31T03:15:27.884Z,8.34
2023-01-31T03:17:55.291Z,8.31
2023-01-31T03:20:25.613Z,8.32
2023-01-31T03:22:55.943Z,8.34
2023-01-31T03:25:25.185Z,8.37
2023-01-31T03:27:55.955Z,8.35
2023-01-31T03:30:28.174Z,8.35
2023-01-31T03:32:58.342Z,8.35
2023-01-31T03:35:28.120Z,8.35
2023-01-31T03:38:00.261Z,8.39
2023-01-31T03:40:31.102Z,8.41
2023-01-31T03:43:01.956Z,8.40
2023-01-31T03:45:33.039Z,8.40
2023-01-31T03:48:01.193Z,8.40
2023-01-31T03:50:31.735Z,8.44
2023-01-31T03:53:02.013Z,8.45
2023-01-31T03:55:32.659Z,8.48
2023-01-31T03:58:00.882Z,8.53
2023-01-31T04:00:28.875Z,8.56
2023-01-31T04:03:01.770Z,8.58
2023-01-31T04:05:32.660Z,8.60
2023-01-31T04:08:00.312Z,8.64
2023-01-31T04:10:27.444Z,8.67
2023-01-31T04:12:54.513Z,8.66
2023-01-31T04:15:22.627Z,8.66
2023-01-31T04:17:49.899Z,8.66
2023-01-31T04:20:17.131Z,8.67
2023-01-31T04:22:44.206Z,8.69
2023-01-31T04:25:11.666Z,8.69
2023-01-31T04:27:39.497Z,8.70
2023-01-31T04:30:07.378Z,8.71
2023-01-31T04:32:34.605Z,8.70
2023-01-31T04:35:02.616Z,8.70
2023-01-31T04:37:29.836Z,8.71
2023-01-31T04:39:57.136Z,8.72
2023-01-31T04:42:24.187Z,8.73
2023-01-31T04:44:51.263Z,8.71
2023-01-31T04:47:18.355Z,8.69
2023-01-31T04:49:45.513Z,8.72
2023-01-31T04:52:12.752Z,8.72
2023-01-31T04:54:39.809Z,8.72
2023-01-31T04:57:06.916Z,8.73
2023-01-31T04:59:33.979Z,8.75
2023-01-31T05:02:01.053Z,8.76
2023-01-31T05:04:28.110Z,8.78
2023-01-31T05:06:55.179Z,8.81
2023-01-31T05:09:23.229Z,8.83
2023-01-31T05:11:50.339Z,8.85
2023-01-31T05:14:17.759Z,8.83
2023-01-31T05:16:47.636Z,8.81
2023-01-31T05:19:16.208Z,8.81
2023-01-31T05:21:46.655Z,8.83
2023-01-31T05:24:13.698Z,8.81
2023-01-31T05:26:40.812Z,8.84
2023-01-31T05:29:08.106Z,8.85
2023-01-31T05:31:35.260Z,8.87
2023-01-31T05:34:02.775Z,8.89
2023-01-31T05:36:29.859Z,8.91
2023-01-31T05:38:56.916Z,8.89
2023-01-31T05:41:24.135Z,8.92
2023-01-31T05:43:51.113Z,8.89
2023-01-31T05:46:18.217Z,8.89
2023-01-31T05:48:45.255Z,8.90
2023-01-31T05:51:12.315Z,8.87
2023-01-31T05:53:39.482Z,8.88
2023-01-31T05:56:06.877Z,8.91
2023-01-31T05:58:33.935Z,8.93
2023-01-31T06:01:01.124Z,8.94
2023-01-31T06:03:28.201Z,8.95
2023-01-31T06:05:55.556Z,8.96
2023-01-31T06:08:22.649Z,8.99
2023-01-31T06:10:49.705Z,8.95
2023-01-31T06:13:16.769Z,8.94
2023-01-31T06:15:44.341Z,8.93
2023-01-31T06:18:11.619Z,8.93
2023-01-31T06:20:39.256Z,8.92
2023-01-31T06:23:06.418Z,8.91
2023-01-31T06:25:33.436Z,8.92
2023-01-31T06:28:00.652Z,8.91
2023-01-31T06:30:27.777Z,8.92
2023-01-31T06:32:54.854Z,8.90
2023-01-31T06:35:22.472Z,8.92
2023-01-31T06:37:49.762Z,8.93
2023-01-31T06:40:17.056Z,8.96
2023-01-31T06:42:44.178Z,8.98
2023-01-31T06:45:11.559Z,9.00
2023-01-31T06:47:38.714Z,9.00
2023-01-31T06:50:06.115Z,9.00
2023-01-31T06:52:33.725Z,9.02
2023-01-31T06:55:00.999Z,9.03
2023-01-31T06:57:28.031Z,9.01
2023-01-31T06:59:55.135Z,9.00
2023-01-31T07:02:22.326Z,9.01
2023-01-31T07:04:49.500Z,9.00
2023-01-31T07:07:16.715Z,8.99
2023-01-31T07:09:43.877Z,9.00
2023-01-31T07:12:11.177Z,9.01
2023-01-31T07:14:38.445Z,9.02
2023-01-31T07:17:05.502Z,9.06
2023-01-31T07:19:32.621Z,9.12
2023-01-31T07:21:59.718Z,9.09
2023-01-31T07:24:26.749Z,9.09
2023-01-31T07:26:54.642Z,9.07
2023-01-31T07:29:21.868Z,9.07
2023-01-31T07:31:50.520Z,9.07
2023-01-31T07:38:39.697Z,9.11
2023-01-31T07:41:15.363Z,9.14
2023-01-31T07:43:42.478Z,9.16
2023-01-31T07:46:10.850Z,9.19
2023-01-31T07:48:38.219Z,9.20
2023-01-31T07:51:07.981Z,9.23
2023-01-31T07:53:37.022Z,9.27
2023-01-31T07:56:07.151Z,9.32
2023-01-31T07:58:37.452Z,9.36
2023-01-31T08:01:07.786Z,9.35
2023-01-31T08:03:40.733Z,9.40
2023-01-31T08:06:12.085Z,9.55
2023-01-31T08:09:00.487Z,9.72
2023-01-31T08:14:26.212Z,9.73
2023-01-31T08:16:53.189Z,9.74
2023-01-31T08:19:20.364Z,9.74
2023-01-31T08:21:47.264Z,9.79
2023-01-31T08:24:14.412Z,9.84
2023-01-31T08:26:42.790Z,9.87
2023-01-31T08:29:10.273Z,9.93
2023-01-31T08:31:37.425Z,9.96
2023-01-31T08:34:04.502Z,9.99
2023-01-31T08:36:33.015Z,9.98
2023-01-31T08:39:00.473Z,9.98
2023-01-31T08:41:28.328Z,10.04
2023-01-31T08:43:58.490Z,10.08
2023-01-31T08:46:27.876Z,10.10
2023-01-31T08:48:55.161Z,10.15
2023-01-31T08:51:22.536Z,10.16
2023-01-31T08:53:49.821Z,10.14
2023-01-31T08:56:17.123Z,10.14
2023-01-31T08:58:44.728Z,10.12
2023-01-31T09:01:12.849Z,10.16
2023-01-31T09:03:40.245Z,10.20
2023-01-31T09:06:08.482Z,10.23
2023-01-31T09:08:35.740Z,10.25
2023-01-31T09:11:03.178Z,10.27
2023-01-31T09:13:31.468Z,10.33
2023-01-31T09:15:59.819Z,10.39
2023-01-31T09:18:26.967Z,10.47
2023-01-31T09:20:54.073Z,10.53
2023-01-31T09:23:21.070Z,10.57
2023-01-31T09:25:51.254Z,10.59
2023-01-31T09:28:18.394Z,10.65
2023-01-31T09:30:45.586Z,10.76
2023-01-31T09:33:12.809Z,10.85
2023-01-31T09:35:39.801Z,10.85
2023-01-31T09:38:06.722Z,10.79
2023-01-31T09:40:36.508Z,10.79
2023-01-31T09:43:05.398Z,10.78
2023-01-31T09:45:33.409Z,10.77
2023-01-31T09:48:01.458Z,10.81
2023-01-31T09:50:31.953Z,10.81
2023-01-31T09:52:59.355Z,10.82
2023-01-31T09:55:33.071Z,10.82
2023-01-31T09:58:05.454Z,10.84
2023-01-31T10:00:37.108Z,10.88
2023-01-31T10:03:07.484Z,10.93
2023-01-31T10:05:37.527Z,10.93
2023-01-31T10:08:07.560Z,10.93
2023-01-31T10:10:37.627Z,10.92
2023-01-31T10:13:11.359Z,10.93
2023-01-31T10:15:43.266Z,10.93
2023-01-31T10:18:14.353Z,10.94
2023-01-31T10:20:46.747Z,10.97
2023-01-31T10:23:13.994Z,10.98
2023-01-31T10:25:48.021Z,11.00
2023-01-31T10:28:19.932Z,11.01
2023-01-31T10:30:52.353Z,11.02
2023-01-31T10:33:19.641Z,11.04
2023-01-31T10:35:48.647Z,11.09
2023-01-31T10:38:19.807Z,11.15
2023-01-31T10:40:49.261Z,11.19
2023-01-31T10:43:19.242Z,11.24
2023-01-31T10:45:46.280Z,11.28
2023-01-31T10:48:16.167Z,11.31
2023-01-31T10:50:43.959Z,11.33
2023-01-31T10:53:11.324Z,11.34
2023-01-31T10:55:45.354Z,11.38
2023-01-31T10:58:15.368Z,11.43
2023-01-31T11:00:42.696Z,11.47
2023-01-31T11:03:11.852Z,11.53
2023-01-31T11:05:44.322Z,11.59
2023-01-31T11:08:21.184Z,11.63
2023-01-31T11:10:51.211Z,11.69
2023-01-31T11:13:19.414Z,11.69
2023-01-31T11:15:48.684Z,11.68
2023-01-31T11:18:25.939Z,11.68
2023-01-31T11:20:52.888Z,11.72
2023-01-31T11:23:23.053Z,11.72
2023-01-31T11:25:51.350Z,11.73
2023-01-31T11:28:20.034Z,11.76
2023-01-31T11:30:50.078Z,11.82
2023-01-31T11:33:20.166Z,11.91
2023-01-31T11:35:52.352Z,11.97
2023-01-31T11:38:22.511Z,12.05
2023-01-31T11:40:49.565Z,12.10
2023-01-31T11:43:19.593Z,12.13
2023-01-31T11:45:47.551Z,12.11
2023-01-31T11:48:17.644Z,12.23
2023-01-31T11:50:46.171Z,12.29
2023-01-31T11:53:16.423Z,12.34
2023-01-31T11:55:43.704Z,12.43
2023-01-31T11:58:13.684Z,12.55
2023-01-31T12:00:45.021Z,12.63
2023-01-31T12:03:16.384Z,12.68
2023-01-31T12:05:45.113Z,12.74
2023-01-31T12:08:15.198Z,12.78
2023-01-31T12:10:43.195Z,12.81
2023-01-31T12:13:18.799Z,12.82
2023-01-31T12:15:49.357Z,12.85
2023-01-31T12:18:21.695Z,12.87
2023-01-31T12:20:59.141Z,12.90
2023-01-31T12:23:35.776Z,12.96
2023-01-31T12:26:06.080Z,12.96
2023-01-31T12:28:36.202Z,12.99
2023-01-31T12:31:09.524Z,13.01
2023-01-31T12:33:38.007Z,13.02
2023-01-31T12:36:05.233Z,13.02
2023-01-31T12:38:35.951Z,13.05
2023-01-31T12:41:06.031Z,13.10
2023-01-31T12:43:36.316Z,13.11
2023-01-31T12:46:09.995Z,13.14
2023-01-31T12:48:40.460Z,13.18
2023-01-31T12:51:10.495Z,13.22
2023-01-31T12:53:45.089Z,13.27
2023-01-31T12:56:15.250Z,13.29
2023-01-31T12:58:42.637Z,13.30
2023-01-31T13:01:10.031Z,13.28
2023-01-31T13:03:44.891Z,13.27
2023-01-31T13:06:16.007Z,13.24
2023-01-31T13:08:57.070Z,13.20
2023-01-31T13:11:35.378Z,13.15
2023-01-31T13:14:04.206Z,13.09
2023-01-31T13:16:34.648Z,13.06
2023-01-31T13:19:03.946Z,13.04
2023-01-31T13:21:34.121Z,13.04
2023-01-31T13:24:03.788Z,13.04
2023-01-31T13:26:33.783Z,13.02
2023-01-31T13:29:03.853Z,12.99
2023-01-31T13:31:34.413Z,12.99
2023-01-31T13:34:07.544Z,13.00
2023-01-31T13:36:41.760Z,13.00
2023-01-31T13:39:16.057Z,13.02
2023-01-31T13:41:43.082Z,13.04
2023-01-31T13:44:13.079Z,13.03
2023-01-31T13:46:41.358Z,12.99
2023-01-31T13:49:11.330Z,12.97
2023-01-31T13:51:40.759Z,12.93
2023-01-31T13:54:16.505Z,12.91
2023-01-31T13:56:47.297Z,12.84
2023-01-31T13:59:20.308Z,12.84
2023-01-31T14:01:48.787Z,12.83
2023-01-31T14:04:16.237Z,12.86
2023-01-31T14:06:46.267Z,12.85
2023-01-31T14:09:20.938Z,12.85
2023-01-31T14:11:47.862Z,12.83
2023-01-31T14:14:19.407Z,12.81
2023-01-31T14:16:46.925Z,12.80
2023-01-31T14:19:16.867Z,12.80
2023-01-31T14:21:44.208Z,12.82
2023-01-31T14:24:18.985Z,12.89
2023-01-31T14:26:46.360Z,12.99
2023-01-31T14:29:17.173Z,13.09
2023-01-31T14:31:45.218Z,13.20
2023-01-31T14:34:15.328Z,13.29
2023-01-31T14:36:53.337Z,13.39
2023-01-31T14:39:21.618Z,13.46
2023-01-31T14:41:52.037Z,13.52
2023-01-31T14:44:29.407Z,13.57
2023-01-31T14:47:07.814Z,13.54
2023-01-31T14:49:35.428Z,13.49
2023-01-31T14:52:05.412Z,13.42
2023-01-31T14:54:40.599Z,13.33
2023-01-31T14:57:07.864Z,13.25
2023-01-31T14:59:39.475Z,13.20
2023-01-31T15:02:09.565Z,13.10
2023-01-31T15:04:36.629Z,13.01
2023-01-31T15:07:03.558Z,12.91
2023-01-31T15:09:33.551Z,12.84
2023-01-31T15:12:01.585Z,12.75
2023-01-31T15:14:36.275Z,12.68
2023-01-31T15:17:06.738Z,12.62
2023-01-31T15:19:40.982Z,12.55
2023-01-31T15:22:10.099Z,12.52
2023-01-31T15:24:39.908Z,12.50
2023-01-31T15:27:09.443Z,12.48
2023-01-31T15:29:39.467Z,12.44
2023-01-31T15:32:14.634Z,12.42
2023-01-31T15:34:47.909Z,12.43
2023-01-31T15:37:20.638Z,12.43
2023-01-31T15:39:53.276Z,12.43
2023-01-31T15:42:21.967Z,12.41
2023-01-31T15:44:48.887Z,12.42
2023-01-31T15:47:20.264Z,12.41
2023-01-31T15:49:47.288Z,12.42
2023-01-31T15:52:17.329Z,12.41
2023-01-31T15:54:47.305Z,12.40
2023-01-31T15:57:16.636Z,12.39
2023-01-31T15:59:44.912Z,12.37
2023-01-31T16:02:19.857Z,12.40
2023-01-31T16:04:47.006Z,12.40
2023-01-31T16:07:17.152Z,12.40
2023-01-31T16:09:44.416Z,12.37
2023-01-31T16:12:11.921Z,12.35
2023-01-31T16:14:39.527Z,12.30
2023-01-31T16:17:06.996Z,12.30
2023-01-31T16:19:36.257Z,12.27
2023-01-31T16:22:03.420Z,12.22
2023-01-31T16:24:32.362Z,12.19
2023-01-31T16:27:03.400Z,12.13
2023-01-31T16:29:33.624Z,12.09
2023-01-31T16:32:00.770Z,12.02
2023-01-31T16:34:30.774Z,11.98
2023-01-31T16:37:00.763Z,11.94
2023-01-31T16:39:29.235Z,11.90
2023-01-31T16:41:58.564Z,11.85
2023-01-31T16:44:27.978Z,11.81
2023-01-31T16:46:55.300Z,11.75
2023-01-31T16:49:22.820Z,11.69
2023-01-31T16:51:50.883Z,11.67
2023-01-31T16:54:21.012Z,11.64
2023-01-31T16:57:06.204Z,11.58
2023-01-31T16:59:34.573Z,11.53
2023-01-31T17:02:03.125Z,11.53
2023-01-31T17:04:30.638Z,11.53
2023-01-31T17:07:00.745Z,11.52
2023-01-31T17:09:28.801Z,11.55
2023-01-31T17:11:56.066Z,11.58
2023-01-31T17:14:23.545Z,11.59
2023-01-31T17:16:51.684Z,11.61
2023-01-31T17:19:18.686Z,11.61
2023-01-31T17:21:45.932Z,11.62
2023-01-31T17:24:14.710Z,11.62
2023-01-31T17:26:41.865Z,11.63
2023-01-31T17:29:09.048Z,11.62
2023-01-31T17:31:36.293Z,11.62
2023-01-31T17:34:04.131Z,11.60
2023-01-31T17:36:31.286Z,11.59
2023-01-31T17:38:58.516Z,11.56
2023-01-31T17:41:26.270Z,11.55
2023-01-31T17:43:53.413Z,11.53
2023-01-31T17:46:20.703Z,11.53
2023-01-31T17:48:48.379Z,11.53
2023-01-31T17:51:15.589Z,11.51
2023-01-31T17:53:49.988Z,11.50
2023-01-31T17:56:18.938Z,11.53
2023-01-31T17:58:46.182Z,11.51
2023-01-31T18:01:14.634Z,11.52
2023-01-31T18:03:42.370Z,11.50
2023-01-31T18:06:12.722Z,11.48
2023-01-31T18:08:39.919Z,11.47
2023-01-31T18:11:09.047Z,11.48
2023-01-31T18:13:38.274Z,11.48
2023-01-31T18:16:07.285Z,11.50
2023-01-31T18:18:36.115Z,11.49
2023-01-31T18:21:05.940Z,11.49
2023-01-31T18:23:33.180Z,11.48
2023-01-31T18:26:03.930Z,11.50
2023-01-31T18:28:31.132Z,11.49
2023-01-31T18:31:01.668Z,11.50
2023-01-31T18:33:29.547Z,11.52
2023-01-31T18:35:58.061Z,11.53
2023-01-31T18:38:26.036Z,11.51
2023-01-31T18:40:53.632Z,11.51
2023-01-31T18:43:21.933Z,11.50
2023-01-31T18:45:49.016Z,11.49
2023-01-31T18:48:16.109Z,11.44
2023-01-31T18:50:43.561Z,11.41
2023-01-31T18:53:10.682Z,11.41
2023-01-31T18:55:37.848Z,11.40
2023-01-31T18:58:05.044Z,11.38
2023-01-31T19:00:32.832Z,11.33
2023-01-31T19:03:00.099Z,11.28
2023-01-31T19:05:27.762Z,11.23
2023-01-31T19:07:54.906Z,11.19
2023-01-31T19:10:22.163Z,11.14
2023-01-31T19:12:49.720Z,11.12
2023-01-31T19:15:17.174Z,11.11
2023-01-31T19:17:44.267Z,11.10
2023-01-31T19:20:11.890Z,11.10
2023-01-31T19:22:39.025Z,11.09
2023-01-31T19:25:09.335Z,11.10
2023-01-31T19:27:36.429Z,11.13
2023-01-31T19:30:03.805Z,11.17
2023-01-31T19:32:31.546Z,11.15
2023-01-31T19:34:58.571Z,11.12
2023-01-31T19:37:25.562Z,11.11
2023-01-31T19:39:52.648Z,11.10
2023-01-31T19:42:20.875Z,11.10
2023-01-31T19:44:47.838Z,11.11
2023-01-31T19:47:14.913Z,11.10
2023-01-31T19:49:41.850Z,11.11
2023-01-31T19:52:08.858Z,11.12
2023-01-31T19:54:35.959Z,11.13
2023-01-31T19:57:03.203Z,11.15
2023-01-31T19:59:30.141Z,11.16
2023-01-31T20:01:57.215Z,11.14
2023-01-31T20:04:24.302Z,11.14
2023-01-31T20:06:51.587Z,11.12
2023-01-31T20:09:20.512Z,11.12
2023-01-31T20:11:47.591Z,11.12
2023-01-31T20:14:14.670Z,11.13
2023-01-31T20:16:41.662Z,11.14
2023-01-31T20:19:08.654Z,11.14
2023-01-31T20:21:37.460Z,11.12
2023-01-31T20:24:05.132Z,11.11
2023-01-31T20:26:33.088Z,11.05
2023-01-31T20:29:00.234Z,11.05
2023-01-31T20:31:27.606Z,11.04
2023-01-31T20:33:55.319Z,10.98
2023-01-31T20:36:23.977Z,10.94
2023-01-31T20:38:51.205Z,10.89
2023-01-31T20:41:18.138Z,10.90
2023-01-31T20:43:45.478Z,10.89
2023-01-31T20:46:13.524Z,10.89
2023-01-31T20:48:41.195Z,10.88
2023-01-31T20:51:08.264Z,10.85
2023-01-31T20:53:36.042Z,10.77
2023-01-31T20:56:03.352Z,10.67
2023-01-31T20:58:32.140Z,10.60
2023-01-31T21:01:00.331Z,10.55
2023-01-31T21:03:28.288Z,10.49
2023-01-31T21:05:57.504Z,10.46
2023-01-31T21:08:24.524Z,10.45
2023-01-31T21:10:52.251Z,10.41
2023-01-31T21:13:20.179Z,10.36
2023-01-31T21:15:50.363Z,10.34
2023-01-31T21:18:17.315Z,10.29
2023-01-31T21:20:44.545Z,10.26
2023-01-31T21:23:11.723Z,10.22
2023-01-31T21:25:38.737Z,10.16
2023-01-31T21:28:05.730Z,10.13
2023-01-31T21:30:32.818Z,10.09
2023-01-31T21:32:59.819Z,10.03
2023-01-31T21:35:26.930Z,10.02
2023-01-31T21:37:54.029Z,9.99
2023-01-31T21:40:21.404Z,9.95
2023-01-31T21:42:51.541Z,9.89
2023-01-31T21:45:38.602Z,9.85
2023-01-31T21:48:10.736Z,9.80
2023-01-31T21:50:37.695Z,9.75
2023-01-31T21:53:04.563Z,9.73
2023-01-31T21:55:31.517Z,9.71
2023-01-31T21:57:58.474Z,9.70
2023-01-31T22:00:25.430Z,9.67
2023-01-31T22:02:52.921Z,9.64
2023-01-31T22:05:19.778Z,9.61
2023-01-31T22:07:46.786Z,9.58
2023-01-31T22:10:13.794Z,9.56
2023-01-31T22:12:40.786Z,9.52
2023-01-31T22:15:08.335Z,9.50
2023-01-31T22:17:35.391Z,9.46
2023-01-31T22:20:02.395Z,9.42
2023-01-31T22:22:29.341Z,9.38
2023-01-31T22:24:56.279Z,9.31
2023-01-31T22:27:23.297Z,9.26
2023-01-31T22:29:50.116Z,9.26
2023-01-31T22:32:17.028Z,9.25
2023-01-31T22:34:44.051Z,9.18
2023-01-31T22:37:11.112Z,9.15
2023-01-31T22:39:38.019Z,9.12
2023-01-31T22:42:05.006Z,9.12
2023-01-31T22:44:31.894Z,9.11
2023-01-31T22:46:58.778Z,9.11
2023-01-31T22:49:25.647Z,9.11
2023-01-31T22:51:52.692Z,9.10
2023-01-31T22:54:19.582Z,9.08
2023-01-31T22:56:46.459Z,9.04
2023-01-31T22:59:13.416Z,9.02
2023-01-31T23:01:40.345Z,9.01
2023-01-31T23:04:08.364Z,8.99
2023-01-31T23:06:35.914Z,8.95
2023-01-31T23:09:03.004Z,8.92
2023-01-31T23:11:29.877Z,8.90
2023-01-31T23:14:00.652Z,8.85
2023-01-31T23:16:47.502Z,8.82
2023-01-31T23:19:15.037Z,8.84
2023-01-31T23:21:43.441Z,8.85
2023-01-31T23:24:11.265Z,8.83
2023-01-31T23:26:38.383Z,8.85
2023-01-31T23:29:05.499Z,8.82
2023-01-31T23:31:32.738Z,8.80
2023-01-31T23:34:00.886Z,8.77
2023-01-31T23:36:28.173Z,8.76
2023-01-31T23:38:55.366Z,8.72
2023-01-31T23:41:22.237Z,8.71
2023-01-31T23:43:49.114Z,8.72
2023-01-31T23:46:16.071Z,8.73
2023-01-31T23:48:43.645Z,8.71
2023-01-31T23:51:10.633Z,8.70
2023-01-31T23:53:37.585Z,8.71
2023-01-31T23:56:04.656Z,8.69
2023-01-31T23:58:31.484Z,8.69
